Time;durP1;ratioP1;P1;durP2;ratioP2;P2;SDS_P1;SDS_P2;PMS_P1;PMS_P2;Temp;Humidity;BMP_temperature;BMP_pressure;BME280_temperature;BME280_humidity;BME280_pressure;Samples;Min_cycle;Max_cycle;Signal;HPM_P1;HPM_P2
2024/01/03 00:01:32;;;;;;;6.33;3.20;;;;;;;7.34;100.00;98145.25;7368149;19;20478;-40
2024/01/03 00:04:02;;;;;;;3.63;2.40;;;;;;;7.39;100.00;98139.34;7391533;19;20455;-43
2024/01/03 00:06:34;;;;;;;8.23;2.80;;;;;;;7.49;100.00;98152.28;7368923;19;20407;-40
2024/01/03 00:09:04;;;;;;;8.90;3.60;;;;;;;7.60;100.00;98142.16;7390432;19;20486;-39
2024/01/03 00:11:35;;;;;;;3.10;1.73;;;;;;;7.73;100.00;98150.88;7368277;19;20392;-39
2024/01/03 00:14:25;;;;;;;12.83;2.67;;;;;;;7.77;100.00;98162.88;7391204;19;20476;-39
2024/01/03 00:16:57;;;;;;;2.23;1.33;;;;;;;7.92;100.00;98177.59;7368255;19;20466;-43
2024/01/03 00:19:27;;;;;;;2.17;1.30;;;;;;;7.92;100.00;98183.59;7387097;19;20403;-40
2024/01/03 00:21:57;;;;;;;2.87;1.90;;;;;;;7.97;100.00;98197.38;7368272;19;20435;-39
2024/01/03 00:24:28;;;;;;;4.10;1.13;;;;;;;8.00;100.00;98218.78;7389786;19;20467;-40
2024/01/03 00:26:58;;;;;;;2.90;1.20;;;;;;;7.99;100.00;98228.16;7367593;19;20396;-41
2024/01/03 00:29:53;;;;;;;4.23;1.30;;;;;;;7.97;100.00;98250.41;7388900;19;20404;-39
2024/01/03 00:32:24;;;;;;;2.33;1.33;;;;;;;8.01;100.00;98269.28;7366539;19;20499;-40
2024/01/03 00:34:55;;;;;;;5.00;1.40;;;;;;;8.04;100.00;98288.16;7392984;19;20399;-40
2024/01/03 00:37:27;;;;;;;3.43;1.83;;;;;;;8.04;100.00;98310.41;7366189;19;20415;-41
2024/01/03 00:39:58;;;;;;;5.23;1.53;;;;;;;8.07;100.00;98331.00;7390396;19;21295;-40
2024/01/03 00:42:28;;;;;;;5.07;1.80;;;;;;;8.09;100.00;98361.00;7364190;19;20859;-40
2024/01/03 00:45:00;;;;;;;2.87;1.33;;;;;;;8.10;100.00;98374.69;7390326;19;20411;-40
2024/01/03 00:47:30;;;;;;;6.27;1.47;;;;;;;8.18;100.00;98391.09;7372915;19;20423;-40
2024/01/03 00:50:00;;;;;;;7.00;1.23;;;;;;;8.13;100.00;98405.56;7397283;19;20404;-39
2024/01/03 00:52:29;;;;;;;5.97;1.13;;;;;;;8.18;100.00;98401.34;7373335;19;20411;-40
2024/01/03 00:54:59;;;;;;;3.57;1.53;;;;;;;8.19;100.00;98397.94;7396763;19;20998;-40
2024/01/03 00:57:29;;;;;;;6.30;1.60;;;;;;;8.18;100.00;98388.50;7372968;19;20435;-40
2024/01/03 01:00:01;;;;;;;7.33;1.50;;;;;;;8.17;100.00;98384.22;7399081;19;20956;-40
2024/01/03 01:02:31;;;;;;;2.27;1.20;;;;;;;8.21;100.00;98367.16;7372386;19;20426;-40
2024/01/03 01:05:00;;;;;;;7.80;2.03;;;;;;;8.28;100.00;98343.25;7393835;19;20758;-42
2024/01/03 01:07:30;;;;;;;4.03;1.33;;;;;;;8.30;100.00;98315.03;7366212;19;20476;-39
2024/01/03 01:10:00;;;;;;;2.93;1.20;;;;;;;8.34;100.00;98285.94;7387724;19;20411;-41
2024/01/03 01:12:29;;;;;;;2.47;1.10;;;;;;;8.34;100.00;98261.13;7366393;19;20947;-39
2024/01/03 01:15:02;;;;;;;2.87;1.10;;;;;;;8.32;100.00;98239.66;7390653;19;20759;-40
2024/01/03 01:17:31;;;;;;;2.10;1.07;;;;;;;8.32;100.00;98228.53;7366145;19;20861;-39
2024/01/03 01:20:01;;;;;;;3.30;1.40;;;;;;;8.35;100.00;98192.59;7391163;19;20418;-40
2024/01/03 01:22:31;;;;;;;8.87;1.10;;;;;;;8.37;100.00;98157.50;7366468;19;20425;-40
2024/01/03 01:25:00;;;;;;;10.43;1.03;;;;;;;8.41;100.00;98113.00;7389765;19;20667;-39
2024/01/03 01:27:30;;;;;;;3.23;0.77;;;;;;;8.40;100.00;98089.88;7366284;19;20448;-39
2024/01/03 01:30:02;;;;;;;4.53;1.93;;;;;;;8.37;100.00;98067.59;7387341;19;20992;-41
2024/01/03 01:32:32;;;;;;;3.43;1.00;;;;;;;8.34;100.00;98065.84;7365999;19;20423;-40
2024/01/03 01:35:01;;;;;;;4.83;0.80;;;;;;;8.32;100.00;98076.97;7387711;19;20407;-40
2024/01/03 01:37:31;;;;;;;11.20;2.83;;;;;;;8.33;100.00;98078.69;7362900;19;20491;-39
2024/01/03 01:40:01;;;;;;;1.50;0.60;;;;;;;8.32;100.00;98054.69;7387088;19;20495;-41
2024/01/03 01:42:31;;;;;;;11.93;1.50;;;;;;;8.36;100.00;98043.59;7364539;19;20490;-39
2024/01/03 01:45:04;;;;;;;3.40;1.37;;;;;;;8.32;100.00;98026.41;7386887;19;20955;-39
2024/01/03 01:47:33;;;;;;;5.40;0.97;;;;;;;8.36;100.00;98006.78;7365959;19;20520;-41
2024/01/03 01:50:03;;;;;;;4.93;1.43;;;;;;;8.37;100.00;97987.94;7387598;19;20870;-40
2024/01/03 01:52:33;;;;;;;7.80;1.57;;;;;;;8.36;100.00;97981.09;7365663;19;20502;-40
2024/01/03 01:55:03;;;;;;;9.10;1.53;;;;;;;8.35;100.00;97953.66;7387757;19;20486;-40
2024/01/03 01:57:33;;;;;;;7.80;1.13;;;;;;;8.34;100.00;97947.66;7364366;19;20506;-39
2024/01/03 02:00:07;;;;;;;2.83;0.87;;;;;;;8.33;100.00;97945.09;7387553;19;20428;-40
2024/01/03 02:02:37;;;;;;;3.90;1.33;;;;;;;8.30;100.00;97929.66;7366145;19;20487;-39
2024/01/03 02:05:08;;;;;;;3.20;0.80;;;;;;;8.30;100.00;97909.13;7388310;19;20969;-39
2024/01/03 02:07:38;;;;;;;2.90;0.50;;;;;;;8.21;100.00;97897.06;7365289;19;20506;-40
2024/01/03 02:10:10;;;;;;;3.20;0.67;;;;;;;8.20;100.00;97887.66;7389084;19;20421;-39
2024/01/03 02:12:40;;;;;;;8.43;0.73;;;;;;;8.06;100.00;97903.81;7365260;19;20463;-41
2024/01/03 02:15:13;;;;;;;6.70;1.70;;;;;;;8.02;100.00;97937.19;7387619;19;20411;-40
2024/01/03 02:17:42;;;;;;;2.80;1.40;;;;;;;7.93;100.00;98002.16;7361491;19;20947;-40
2024/01/03 02:20:14;;;;;;;12.50;1.57;;;;;;;7.80;100.00;98060.25;7387454;19;20420;-39
2024/01/03 02:22:47;;;;;;;2.60;0.90;;;;;;;7.68;100.00;98131.13;7364792;19;20576;-40
2024/01/03 02:25:17;;;;;;;6.50;1.93;;;;;;;7.61;100.00;98215.72;7387563;19;20478;-40
2024/01/03 02:27:46;;;;;;;8.90;1.10;;;;;;;7.57;100.00;98261.91;7363306;19;20793;-39
2024/01/03 02:30:16;;;;;;;3.80;1.47;;;;;;;7.56;100.00;98284.97;7388530;19;20492;-39
2024/01/03 02:32:45;;;;;;;2.23;1.03;;;;;;;7.56;100.00;98305.50;7364928;19;20982;-39
2024/01/03 02:35:15;;;;;;;7.70;1.07;;;;;;;7.54;100.00;98314.88;7387618;19;20407;-39
2024/01/03 02:37:48;;;;;;;5.63;1.17;;;;;;;7.53;100.00;98336.22;7367574;19;20419;-39
2024/01/03 02:40:17;;;;;;;7.80;2.97;;;;;;;7.52;100.00;98329.38;7395060;19;20407;-41
2024/01/03 02:42:47;;;;;;;7.10;1.43;;;;;;;7.48;100.00;98337.88;7369029;19;20459;-40
2024/01/03 02:45:16;;;;;;;5.00;0.87;;;;;;;7.42;100.00;98329.25;7394838;19;20420;-39
2024/01/03 02:47:46;;;;;;;7.70;3.20;;;;;;;7.39;100.00;98333.47;7370277;19;20782;-40
2024/01/03 02:50:16;;;;;;;4.70;0.70;;;;;;;7.34;100.00;98346.19;7395055;19;20487;-38
2024/01/03 02:52:48;;;;;;;2.63;1.13;;;;;;;7.38;100.00;98345.41;7369588;19;21019;-39
2024/01/03 02:55:18;;;;;;;4.30;1.37;;;;;;;7.41;100.00;98337.78;7395378;19;20471;-39
2024/01/03 02:57:47;;;;;;;2.60;0.60;;;;;;;7.48;100.00;98330.19;7369456;19;20439;-41
2024/01/03 03:00:17;;;;;;;5.30;1.13;;;;;;;7.40;100.00;98315.50;7394353;19;20951;-38
2024/01/03 03:02:47;;;;;;;6.63;1.50;;;;;;;7.38;100.00;98306.94;7370245;19;20479;-39
2024/01/03 03:05:17;;;;;;;1.30;0.50;;;;;;;7.36;100.00;98292.34;7393943;19;20412;-39
2024/01/03 03:07:49;;;;;;;2.37;1.00;;;;;;;7.32;100.00;98286.31;7369211;19;20992;-39
2024/01/03 03:10:18;;;;;;;4.50;0.90;;;;;;;7.23;100.00;98286.19;7392962;19;20487;-39
2024/01/03 03:12:48;;;;;;;1.70;0.40;;;;;;;7.15;100.00;98298.88;7369171;19;20509;-40
2024/01/03 03:15:18;;;;;;;1.57;0.60;;;;;;;7.10;100.00;98268.03;7393933;19;20407;-40
2024/01/03 03:17:48;;;;;;;1.60;0.40;;;;;;;6.98;100.00;98271.25;7368825;19;20427;-40
2024/01/03 03:20:17;;;;;;;2.50;0.70;;;;;;;6.93;100.00;98295.97;7394459;19;20403;-40
2024/01/03 03:22:50;;;;;;;3.20;0.87;;;;;;;6.86;100.00;98306.94;7369693;19;20500;-39
2024/01/03 03:25:19;;;;;;;5.10;1.03;;;;;;;6.83;100.00;98307.75;7393966;19;20411;-39
2024/01/03 03:27:49;;;;;;;1.73;0.80;;;;;;;6.95;100.00;98296.84;7368930;19;20500;-39
2024/01/03 03:30:19;;;;;;;2.10;0.87;;;;;;;6.93;100.00;98298.53;7393856;19;20408;-39
2024/01/03 03:32:49;;;;;;;2.63;0.53;;;;;;;6.91;100.00;98294.22;7367888;19;21137;-41
2024/01/03 03:35:19;;;;;;;3.03;0.43;;;;;;;6.89;100.00;98305.28;7391738;19;20487;-39
2024/01/03 03:37:51;;;;;;;5.43;1.43;;;;;;;6.91;100.00;98289.94;7369138;19;20452;-39
2024/01/03 03:40:23;;;;;;;2.60;0.67;;;;;;;6.91;100.00;98273.72;7391779;19;20808;-38
2024/01/03 03:42:52;;;;;;;1.20;0.40;;;;;;;6.86;100.00;98273.59;7366904;19;20535;-40
2024/01/03 03:45:22;;;;;;;1.40;0.50;;;;;;;6.80;100.00;98259.00;7392093;19;20414;-40
2024/01/03 03:47:52;;;;;;;1.30;0.40;;;;;;;6.75;100.00;98268.31;7368548;19;20435;-40
2024/01/03 03:50:22;;;;;;;1.20;0.40;;;;;;;6.66;100.00;98257.91;7394163;19;20411;-40
2024/01/03 03:52:54;;;;;;;2.67;0.50;;;;;;;6.64;100.00;98267.25;7368601;19;20455;-38
2024/01/03 03:55:24;;;;;;;2.13;0.70;;;;;;;6.58;100.00;98281.69;7392127;19;20428;-39
2024/01/03 03:57:53;;;;;;;3.00;0.80;;;;;;;6.56;100.00;98273.09;7368008;19;20431;-39
2024/01/03 04:00:23;;;;;;;1.50;0.60;;;;;;;6.55;100.00;98285.88;7391743;19;20456;-37
2024/01/03 04:02:53;;;;;;;1.30;0.50;;;;;;;6.54;100.00;98284.16;7368522;19;20471;-42
2024/01/03 04:05:22;;;;;;;2.40;0.50;;;;;;;6.53;100.00;98288.44;7391054;19;20403;-39
2024/01/03 04:07:55;;;;;;;8.17;3.10;;;;;;;6.55;100.00;98283.31;7367831;19;20982;-41
2024/01/03 04:10:24;;;;;;;1.40;0.47;;;;;;;6.54;100.00;98285.03;7390885;19;20411;-39
2024/01/03 04:12:55;;;;;;;2.80;1.27;;;;;;;6.55;100.00;98270.50;7367746;19;21006;-39
2024/01/03 04:15:24;;;;;;;2.40;0.60;;;;;;;6.53;100.00;98282.44;7391242;19;20434;-40
2024/01/03 04:17:58;;;;;;;6.33;1.20;;;;;;;6.50;100.00;98279.84;7367335;19;20955;-40
2024/01/03 04:20:28;;;;;;;3.27;1.27;;;;;;;6.46;100.00;98278.91;7394204;19;20415;-39
2024/01/03 04:23:00;;;;;;;3.87;1.00;;;;;;;6.41;100.00;98254.91;7374217;19;20459;-38
2024/01/03 04:25:30;;;;;;;3.17;0.93;;;;;;;6.38;100.00;98272.75;7399742;19;20412;-38
2024/01/03 04:27:59;;;;;;;3.30;0.67;;;;;;;6.41;100.00;98260.03;7375435;19;20851;-39
2024/01/03 04:30:29;;;;;;;5.23;0.97;;;;;;;6.41;100.00;98262.59;7397488;19;20479;-39
2024/01/03 04:32:58;;;;;;;2.03;0.50;;;;;;;6.39;100.00;98259.13;7373578;19;21055;-38
2024/01/03 04:35:28;;;;;;;2.23;0.73;;;;;;;6.45;100.00;98237.06;7397362;19;20424;-39
2024/01/03 04:38:02;;;;;;;2.07;0.50;;;;;;;6.49;100.00;98248.22;7374007;19;20850;-38
2024/01/03 04:40:32;;;;;;;3.33;0.70;;;;;;;6.40;100.00;98248.06;7396681;19;20745;-37
2024/01/03 04:43:02;;;;;;;1.30;0.40;;;;;;;6.44;100.00;98253.25;7372201;19;20455;-38
2024/01/03 04:45:32;;;;;;;1.50;0.60;;;;;;;6.34;100.00;98247.09;7399660;19;20429;-39
2024/01/03 04:48:01;;;;;;;3.57;0.73;;;;;;;6.34;100.00;98248.78;7373623;19;20423;-39
2024/01/03 04:50:31;;;;;;;1.90;0.73;;;;;;;6.32;100.00;98250.47;7396720;19;20411;-38
2024/01/03 04:53:03;;;;;;;2.90;0.70;;;;;;;6.26;100.00;98256.31;7373408;19;20466;-39
2024/01/03 04:55:33;;;;;;;4.20;0.93;;;;;;;6.27;100.00;98255.53;7396748;19;20400;-39
2024/01/03 04:58:02;;;;;;;3.47;0.80;;;;;;;6.27;100.00;98255.53;7374132;19;20446;-41
2024/01/03 05:00:33;;;;;;;1.83;1.00;;;;;;;6.26;100.00;98271.69;7396579;19;20411;-39
2024/01/03 05:03:03;;;;;;;1.30;0.30;;;;;;;6.27;100.00;98263.19;7373098;19;20507;-38
2024/01/03 05:05:32;;;;;;;2.00;0.70;;;;;;;6.22;100.00;98269.91;7396061;19;20976;-38
2024/01/03 05:08:05;;;;;;;1.23;0.40;;;;;;;6.18;100.00;98276.69;7372723;19;20514;-38
2024/01/03 05:10:35;;;;;;;1.20;0.40;;;;;;;6.22;100.00;98278.44;7396624;19;20415;-38
2024/01/03 05:13:05;;;;;;;2.33;0.47;;;;;;;6.21;100.00;98296.38;7372581;19;20838;-39
2024/01/03 05:15:34;;;;;;;2.07;0.40;;;;;;;6.22;100.00;98288.69;7396343;19;20408;-39
2024/01/03 05:18:04;;;;;;;1.70;0.60;;;;;;;6.17;100.00;98299.69;7372931;19;20430;-39
2024/01/03 05:20:34;;;;;;;1.50;0.50;;;;;;;6.13;100.00;98282.53;7396056;19;20423;-39
2024/01/03 05:23:06;;;;;;;1.43;0.63;;;;;;;6.14;100.00;98297.94;7370960;19;21017;-42
2024/01/03 05:25:36;;;;;;;3.10;0.50;;;;;;;6.19;100.00;98282.66;7395820;19;20404;-38
2024/01/03 05:28:06;;;;;;;1.97;0.67;;;;;;;6.16;100.00;98282.59;7372293;19;20995;-38
2024/01/03 05:30:36;;;;;;;1.20;0.30;;;;;;;6.17;100.00;98256.16;7395873;19;20766;-39
2024/01/03 05:33:06;;;;;;;5.57;0.50;;;;;;;6.21;100.00;98229.78;7370629;19;20534;-38
2024/01/03 05:35:36;;;;;;;1.17;0.33;;;;;;;6.21;100.00;98205.03;7396018;19;20432;-38
2024/01/03 05:38:08;;;;;;;2.30;0.60;;;;;;;6.20;100.00;98192.19;7372533;19;20431;-38
2024/01/03 05:40:38;;;;;;;1.10;0.40;;;;;;;6.22;100.00;98164.94;7395618;19;20436;-38
2024/01/03 05:43:08;;;;;;;1.37;0.40;;;;;;;6.22;100.00;98145.28;7370666;19;20488;-39
2024/01/03 05:45:38;;;;;;;3.00;0.70;;;;;;;6.24;100.00;98122.28;7395542;19;20395;-41
2024/01/03 05:48:08;;;;;;;1.30;0.47;;;;;;;6.23;100.00;98107.75;7372083;19;20431;-39
2024/01/03 05:50:38;;;;;;;1.30;0.53;;;;;;;6.28;100.00;98087.34;7395330;19;20475;-38
2024/01/03 05:53:11;;;;;;;1.53;0.40;;;;;;;6.30;100.00;98054.97;7371338;19;20456;-40
2024/01/03 05:55:40;;;;;;;1.10;0.33;;;;;;;6.29;100.00;98069.44;7396445;19;20404;-41
2024/01/03 05:58:10;;;;;;;1.13;0.40;;;;;;;6.29;100.00;98079.69;7372150;19;20795;-39
2024/01/03 06:00:40;;;;;;;1.20;0.50;;;;;;;6.32;100.00;98043.88;7395216;19;20415;-39
2024/01/03 06:03:09;;;;;;;1.17;0.43;;;;;;;6.32;100.00;98041.31;7371504;19;20488;-39
2024/01/03 06:05:39;;;;;;;1.10;0.30;;;;;;;6.33;100.00;98055.00;7397287;19;20770;-39
2024/01/03 06:08:12;;;;;;;1.13;0.40;;;;;;;6.34;100.00;98049.91;7371545;19;21395;-40
2024/01/03 06:10:42;;;;;;;1.83;0.53;;;;;;;6.31;100.00;98065.22;7396660;19;20943;-38
2024/01/03 06:13:15;;;;;;;1.13;0.40;;;;;;;6.34;100.00;98051.59;7371415;19;20455;-38
2024/01/03 06:15:44;;;;;;;1.60;0.40;;;;;;;6.35;100.00;98084.91;7395051;19;20490;-38
2024/01/03 06:18:14;;;;;;;1.40;0.40;;;;;;;6.38;100.00;98073.84;7371046;19;20427;-39
2024/01/03 06:20:45;;;;;;;1.27;0.60;;;;;;;6.34;100.00;98067.84;7395063;19;20399;-38
2024/01/03 06:23:17;;;;;;;1.10;0.40;;;;;;;6.35;100.00;98090.03;7371152;19;20459;-40
2024/01/03 06:25:47;;;;;;;1.70;0.50;;;;;;;6.36;100.00;98085.75;7394531;19;20415;-40
2024/01/03 06:28:16;;;;;;;1.20;0.40;;;;;;;6.31;100.00;98093.38;7371495;19;20490;-40
2024/01/03 06:30:46;;;;;;;3.13;0.47;;;;;;;6.34;100.00;98102.81;7394590;19;20820;-39
2024/01/03 06:33:15;;;;;;;1.10;0.30;;;;;;;6.29;100.00;98127.47;7371303;19;20477;-39
2024/01/03 06:35:45;;;;;;;1.50;0.50;;;;;;;6.25;100.00;98134.25;7393632;19;20424;-39
2024/01/03 06:38:17;;;;;;;1.20;0.40;;;;;;;6.26;100.00;98143.66;7370758;19;20423;-41
2024/01/03 06:40:48;;;;;;;1.10;0.30;;;;;;;6.27;100.00;98140.28;7394499;19;20407;-39
2024/01/03 06:43:17;;;;;;;5.30;0.60;;;;;;;6.24;100.00;98140.22;7368828;19;20488;-39
2024/01/03 06:45:48;;;;;;;5.23;1.07;;;;;;;6.25;100.00;98146.22;7394330;19;20578;-38
2024/01/03 06:48:17;;;;;;;1.37;0.50;;;;;;;6.28;100.00;98159.03;7370482;19;20510;-38
2024/01/03 06:50:47;;;;;;;3.70;0.50;;;;;;;6.24;100.00;98162.41;7395074;19;20791;-40
2024/01/03 06:53:20;;;;;;;1.20;0.40;;;;;;;6.24;100.00;98160.69;7370494;19;20464;-42
2024/01/03 06:55:50;;;;;;;1.20;0.40;;;;;;;6.24;100.00;98168.38;7381930;19;20418;-38
2024/01/03 06:58:21;;;;;;;2.90;0.77;;;;;;;6.21;100.00;98181.13;7362362;19;20939;-37
2024/01/03 07:00:51;;;;;;;1.10;0.30;;;;;;;6.21;100.00;98189.66;7386317;19;20434;-40
2024/01/03 07:03:20;;;;;;;1.20;0.40;;;;;;;6.26;100.00;98188.91;7360272;19;20451;-40
2024/01/03 07:05:50;;;;;;;1.10;0.30;;;;;;;6.25;100.00;98198.25;7384566;19;20705;-38
2024/01/03 07:08:23;;;;;;;1.23;0.37;;;;;;;6.22;100.00;98213.59;7361039;19;20529;-37
2024/01/03 07:10:52;;;;;;;1.17;0.30;;;;;;;6.24;100.00;98222.16;7386333;19;20444;-39
2024/01/03 07:13:22;;;;;;;1.37;0.40;;;;;;;6.21;100.00;98224.66;7359493;19;20471;-39
2024/01/03 07:15:51;;;;;;;1.30;0.40;;;;;;;6.23;100.00;98230.69;7384426;19;20415;-37
2024/01/03 07:18:22;;;;;;;1.30;0.50;;;;;;;6.24;100.00;98227.28;7360374;19;21849;-39
2024/01/03 07:20:52;;;;;;;1.40;0.60;;;;;;;6.28;100.00;98231.63;7385634;19;20424;-38
2024/01/03 07:23:24;;;;;;;1.60;0.40;;;;;;;6.30;100.00;98249.59;7362441;19;20454;-37
2024/01/03 07:25:54;;;;;;;1.40;0.37;;;;;;;6.33;100.00;98314.53;7383851;19;20967;-37
2024/01/03 07:28:23;;;;;;;1.30;0.40;;;;;;;6.32;100.00;98281.22;7360435;19;20874;-37
2024/01/03 07:30:53;;;;;;;2.13;0.40;;;;;;;6.30;100.00;98311.06;7383347;19;20419;-38
2024/01/03 07:33:23;;;;;;;1.20;0.40;;;;;;;6.29;100.00;98330.66;7361374;19;20443;-38
2024/01/03 07:35:53;;;;;;;1.20;0.40;;;;;;;6.31;100.00;98339.22;7384617;19;20412;-39
2024/01/03 07:38:26;;;;;;;1.20;0.37;;;;;;;6.37;100.00;98347.88;7361723;19;20430;-37
2024/01/03 07:40:55;;;;;;;1.77;0.63;;;;;;;6.34;100.00;98358.94;7386284;19;20415;-38
2024/01/03 07:43:25;;;;;;;2.53;1.33;;;;;;;6.37;100.00;98373.50;7360744;19;20472;-39
2024/01/03 07:45:55;;;;;;;1.60;0.40;;;;;;;6.41;100.00;98362.50;7384622;19;20492;-38
2024/01/03 07:48:24;;;;;;;1.30;0.40;;;;;;;6.37;100.00;98376.94;7362828;19;20423;-37
2024/01/03 07:50:54;;;;;;;1.20;0.30;;;;;;;6.38;100.00;98370.09;7384681;19;21074;-37
2024/01/03 07:53:26;;;;;;;1.30;0.40;;;;;;;6.37;100.00;98370.94;7362341;19;20455;-37
2024/01/03 07:55:56;;;;;;;1.40;0.33;;;;;;;6.37;100.00;98358.13;7388748;19;20414;-37
2024/01/03 07:58:26;;;;;;;2.23;0.50;;;;;;;6.31;100.00;98356.31;7368967;19;20789;-38
2024/01/03 08:00:55;;;;;;;2.30;0.40;;;;;;;6.31;100.00;98338.38;7391433;19;20450;-40
2024/01/03 08:03:25;;;;;;;3.00;0.80;;;;;;;6.29;100.00;98312.75;7368270;19;20475;-39
2024/01/03 08:05:55;;;;;;;3.73;0.73;;;;;;;6.26;100.00;98274.25;7390639;19;20412;-37
2024/01/03 08:08:27;;;;;;;3.40;1.17;;;;;;;6.25;100.00;98252.03;7368924;19;20423;-38
2024/01/03 08:10:57;;;;;;;19.33;2.23;;;;;;;6.26;100.00;98225.59;7391216;19;20407;-38
2024/01/03 08:13:27;;;;;;;7.50;1.30;;;;;;;6.25;100.00;98211.06;7367634;19;20869;-39
2024/01/03 08:15:56;;;;;;;1.73;0.87;;;;;;;6.29;100.00;98186.38;7389578;19;20426;-38
2024/01/03 08:18:26;;;;;;;7.03;1.60;;;;;;;6.27;100.00;98188.94;7367579;19;20414;-39
2024/01/03 08:20:56;;;;;;;2.70;1.07;;;;;;;6.25;100.00;98174.38;7390430;19;20411;-39
2024/01/03 08:23:28;;;;;;;9.03;1.40;;;;;;;6.29;100.00;98177.00;7368060;19;20451;-37
2024/01/03 08:25:58;;;;;;;7.43;1.60;;;;;;;6.31;100.00;98162.53;7390251;19;20403;-39
2024/01/03 08:28:28;;;;;;;3.07;1.17;;;;;;;6.30;100.00;98165.94;7368199;19;20904;-38
2024/01/03 08:30:57;;;;;;;5.30;1.60;;;;;;;6.35;100.00;98166.88;7389999;19;20419;-37
2024/01/03 08:33:27;;;;;;;2.90;0.90;;;;;;;6.34;100.00;98179.66;7367157;19;20826;-38
2024/01/03 08:36:02;;;;;;;2.90;0.70;;;;;;;6.43;100.00;98199.44;7388537;19;20419;-40
2024/01/03 08:38:34;;;;;;;4.50;1.10;;;;;;;6.47;100.00;98224.28;7368747;19;20423;-38
2024/01/03 08:41:04;;;;;;;10.27;3.00;;;;;;;6.54;100.00;98251.72;7391017;19;20403;-41
2024/01/03 08:43:34;;;;;;;6.57;1.50;;;;;;;6.55;100.00;98294.44;7364652;19;20464;-39
2024/01/03 08:46:05;;;;;;;12.07;3.40;;;;;;;6.70;100.00;98324.63;7388597;19;20403;-38
2024/01/03 08:48:35;;;;;;;20.03;6.33;;;;;;;6.79;100.00;98388.00;7365982;19;20773;-40
2024/01/03 08:51:05;;;;;;;27.90;8.53;;;;;;;6.77;100.00;98433.22;7388407;19;20418;-39
2024/01/03 08:53:41;;;;;;;11.07;3.10;;;;;;;6.81;100.00;98472.63;7366514;19;20455;-41
2024/01/03 08:56:14;;;;;;;6.17;2.77;;;;;;;6.81;100.00;98488.00;7389571;19;20417;-38
2024/01/03 08:58:45;;;;;;;6.50;2.03;;;;;;;6.82;100.00;98500.81;7367862;19;20439;-39
2024/01/03 09:01:17;;;;;;;5.87;1.93;;;;;;;6.84;100.00;98482.91;7366127;19;20406;-38
2024/01/03 09:03:47;;;;;;;3.87;1.63;;;;;;;6.78;100.00;98482.78;7387046;19;20887;-40
2024/01/03 09:06:21;;;;;;;17.70;4.53;;;;;;;6.85;100.00;98489.78;7361561;19;20407;-40
2024/01/03 09:08:54;;;;;;;12.73;4.93;;;;;;;6.89;100.00;98466.78;7386242;19;20838;-42
2024/01/03 09:11:26;;;;;;;11.37;3.60;;;;;;;6.82;100.00;98467.50;7365428;19;20974;-42
2024/01/03 09:13:57;;;;;;;5.73;1.80;;;;;;;6.91;100.00;98442.91;7385638;19;20545;-44
2024/01/03 09:16:30;;;;;;;3.40;1.50;;;;;;;6.85;100.00;98439.38;7365270;19;20967;-40
2024/01/03 09:19:02;;;;;;;5.90;1.07;;;;;;;6.85;100.00;98436.81;7389834;19;20403;-39
2024/01/03 09:21:34;;;;;;;14.53;3.47;;;;;;;6.87;100.00;98439.41;7366481;19;20407;-39
2024/01/03 09:24:08;;;;;;;8.53;2.17;;;;;;;6.88;100.00;98438.56;7387763;19;20431;-39
2024/01/03 09:26:38;;;;;;;3.30;1.53;;;;;;;6.82;100.00;98456.41;7367221;19;20508;-39
2024/01/03 09:29:07;;;;;;;10.67;4.27;;;;;;;6.88;100.00;98448.84;7388278;19;20418;-40
2024/01/03 09:31:43;;;;;;;1.77;0.60;;;;;;;6.88;100.00;98433.44;7365134;19;20399;-40
2024/01/03 09:34:13;;;;;;;3.10;1.07;;;;;;;6.88;100.00;98449.69;7386972;19;20517;-39
2024/01/03 09:36:43;;;;;;;11.77;4.03;;;;;;;6.95;100.00;98444.66;7364987;19;20431;-38
2024/01/03 09:39:16;;;;;;;5.93;1.77;;;;;;;6.97;100.00;98417.38;7386621;19;20491;-38
2024/01/03 09:41:45;;;;;;;5.50;2.00;;;;;;;6.96;100.00;98396.00;7364618;19;20423;-39
2024/01/03 09:44:15;;;;;;;3.00;1.10;;;;;;;6.97;100.00;98384.06;7388301;19;20446;-39
2024/01/03 09:46:48;;;;;;;13.30;0.93;;;;;;;6.96;100.00;98396.00;7365758;19;20419;-41
2024/01/03 09:49:18;;;;;;;4.50;1.57;;;;;;;6.99;100.00;98374.69;7387145;19;20787;-41
2024/01/03 09:51:49;;;;;;;9.13;2.03;;;;;;;6.97;100.00;98345.59;7369691;19;20395;-39
2024/01/03 09:54:21;;;;;;;6.67;1.67;;;;;;;7.03;100.00;98349.13;7394034;19;20455;-39
2024/01/03 09:56:52;;;;;;;4.90;0.80;;;;;;;7.08;100.00;98268.84;7370706;19;20852;-39
2024/01/03 09:59:22;;;;;;;7.73;1.00;;;;;;;7.09;100.00;98248.38;7395125;19;20475;-39
2024/01/03 10:01:58;;;;;;;6.40;1.30;;;;;;;7.13;100.00;98218.50;7371388;19;20487;-39
2024/01/03 10:04:28;;;;;;;7.23;1.70;;;;;;;7.12;100.00;98222.75;7393972;19;20472;-38
2024/01/03 10:06:58;;;;;;;4.83;0.90;;;;;;;7.13;100.00;98183.44;7371870;19;20471;-39
2024/01/03 10:09:41;;;;;;;5.63;1.90;;;;;;;7.14;100.00;98159.53;7395116;19;20910;-38
2024/01/03 10:12:17;;;;;;;3.37;0.90;;;;;;;7.15;100.00;98135.63;7373270;19;20456;-39
2024/01/03 10:14:47;;;;;;;1.90;0.60;;;;;;;7.20;100.00;98098.91;7394232;19;20447;-39
2024/01/03 10:17:17;;;;;;;13.27;1.77;;;;;;;7.19;100.00;98080.13;7371590;19;20395;-40
2024/01/03 10:19:47;;;;;;;10.97;2.53;;;;;;;7.21;100.00;98069.84;7393577;19;20486;-39
2024/01/03 10:22:21;;;;;;;2.23;0.70;;;;;;;7.17;100.00;98076.66;7371427;19;20768;-39
2024/01/03 10:24:53;;;;;;;8.47;0.70;;;;;;;7.19;100.00;98081.81;7390392;19;21120;-38
2024/01/03 10:27:23;;;;;;;3.37;1.10;;;;;;;7.22;100.00;98072.44;7365098;19;20876;-38
2024/01/03 10:29:52;;;;;;;3.50;0.80;;;;;;;7.26;100.00;98047.69;7386826;19;20432;-41
2024/01/03 10:32:22;;;;;;;6.50;2.10;;;;;;;7.27;100.00;98052.84;7365190;19;20415;-39
2024/01/03 10:34:52;;;;;;;3.80;0.80;;;;;;;7.24;100.00;98034.84;7387109;19;20400;-39
2024/01/03 10:37:22;;;;;;;1.50;0.50;;;;;;;7.28;100.00;98038.34;7370564;19;20426;-39
2024/01/03 10:39:54;;;;;;;4.03;0.67;;;;;;;7.30;100.00;98036.63;7393886;19;20408;-40
2024/01/03 10:42:24;;;;;;;5.50;1.17;;;;;;;7.33;100.00;98046.91;7370579;19;20861;-39
2024/01/03 10:44:54;;;;;;;2.60;0.73;;;;;;;7.29;100.00;98040.03;7395548;19;21037;-40
2024/01/03 10:47:23;;;;;;;6.00;1.07;;;;;;;7.31;100.00;98058.88;7371398;19;20415;-38
2024/01/03 10:49:55;;;;;;;7.83;1.00;;;;;;;7.35;100.00;98014.47;7393866;19;20936;-40
2024/01/03 10:52:28;;;;;;;3.63;1.03;;;;;;;7.40;100.00;97992.25;7372904;19;20525;-39
2024/01/03 10:55:00;;;;;;;5.67;1.17;;;;;;;7.57;100.00;97943.69;7393980;19;20962;-38
2024/01/03 10:57:31;;;;;;;2.93;0.60;;;;;;;7.66;100.00;97924.09;7368675;19;20526;-39
2024/01/03 11:00:14;;;;;;;2.63;0.83;;;;;;;7.72;100.00;97906.16;7394329;19;20411;-39
2024/01/03 11:02:51;;;;;;;3.17;0.87;;;;;;;7.89;100.00;97883.19;7369659;19;20502;-39
2024/01/03 11:05:26;;;;;;;3.30;1.20;;;;;;;7.96;100.00;97864.41;7396325;19;21011;-39
2024/01/03 11:07:59;;;;;;;5.30;1.00;;;;;;;7.96;100.00;97879.81;7364509;19;20419;-39
2024/01/03 11:10:53;;;;;;;5.70;0.70;;;;;;;7.92;100.00;97888.34;7393004;19;20729;-40
2024/01/03 11:13:28;;;;;;;4.50;0.80;;;;;;;7.92;100.00;97883.22;7369954;19;20447;-38
2024/01/03 11:15:58;;;;;;;5.87;0.90;;;;;;;7.93;100.00;97884.94;7395449;19;20432;-40
2024/01/03 11:18:53;;;;;;;4.30;1.10;;;;;;;8.01;100.00;97877.28;7369893;19;20959;-39
2024/01/03 11:21:39;;;;;;;5.90;0.67;;;;;;;8.10;100.00;97895.28;7371809;19;20403;-39
2024/01/03 11:24:38;;;;;;;2.20;0.60;;;;;;;8.10;100.00;97886.72;7392643;19;21084;-39
2024/01/03 11:27:10;;;;;;;3.93;1.10;;;;;;;8.05;100.00;97893.56;7370125;19;20406;-39
2024/01/03 11:29:45;;;;;;;1.77;0.80;;;;;;;8.13;100.00;97891.88;7390950;19;20992;-38
2024/01/03 11:32:16;;;;;;;5.33;0.90;;;;;;;8.13;100.00;97894.47;7370899;19;20426;-38
2024/01/03 11:34:47;;;;;;;2.13;0.70;;;;;;;8.01;100.00;97917.50;7391945;19;20443;-39
2024/01/03 11:37:39;;;;;;;1.97;0.60;;;;;;;7.88;100.00;97916.53;7369829;19;20409;-39
2024/01/03 11:40:12;;;;;;;3.87;1.17;;;;;;;7.94;100.00;97938.00;7394420;19;20415;-41
2024/01/03 11:42:44;;;;;;;4.27;0.80;;;;;;;7.97;100.00;97927.75;7366462;19;20423;-41
2024/01/03 11:45:17;;;;;;;2.60;0.77;;;;;;;8.04;100.00;97912.38;7395148;19;20470;-38
2024/01/03 11:47:49;;;;;;;5.40;0.90;;;;;;;7.99;100.00;97914.91;7368137;19;20423;-38
2024/01/03 11:50:19;;;;;;;1.57;0.57;;;;;;;8.01;100.00;97927.75;7393590;19;20403;-38